Barksdale Air Force Base

KBAD · Luisiana, Estados Unidos

História da METAR KBAD · Barksdale Air Force Base

Abaixo você vê METARs dos últimos dias. Selecione um ano para navegar pelos METARs mais antigos, a partir do ano 2007.

4 de março de 2024

Hora Código Clima Temp. Visibilidade Tecto Vento METAR/SPECI
16:05
V
27 °C 10 mi 3.700 ft 140° 140° 7 kt METAR KBAD 042205Z AUTO 14007KT 10SM SCT029 BKN037 OVC048 27/20 A2977 RMK AO2 LTG DSNT SE SLP084
15:55
M
26 °C 10 mi 2.900 ft 140° 140° 6 kt METAR KBAD 042155Z AUTO 14006KT 10SM BKN029 BKN039 26/20 A2977 RMK AO2 LTG DSNT E DZE03RAB03E13 CIG 029V040 SLP084 P0000 T02570202
15:13
V
26 °C 10 mi 3.700 ft 190° 190° 4 kt METAR KBAD 042113Z AUTO 19004KT 10SM BKN037 BKN080 26/20 A2978 RMK AO2 DZE03RAB03E13 PRESFR SLP087
14:53
V
26 °C 10 mi - 180° 180° 7 kt METAR KBAD 042053Z AUTO 18007KT 10SM -DZ FEW036 26/20 A2980 RMK AO2 DZB53 SLP094
13:22
V
26 °C 10 mi - 180° 180° 12 kt METAR KBAD 041922Z AUTO 18012KT 10SM FEW018 SCT025 26/20 A2985 RMK AO2 SLP111
12:55
M
25 °C 10 mi 1.600 ft 150° 150° 7 kt METAR KBAD 041855Z 15007KT 10SM BKN016 OVC055 25/21 A2987 RMK AO2A SLP118 T02530205
12:17
M
23 °C 10 mi 1.600 ft 150° 150° 10 kt METAR KBAD 041817Z 15010KT 10SM BKN016 OVC045 23/20 A2989 RMK AO2A LTG DSNT NW-N SLP125
12:15
V
23 °C 10 mi 4.300 ft 160° 160° 10 kt METAR KBAD 041815Z AUTO 16010KT 10SM SCT016 SCT032 OVC043 23/20 A2989 RMK AO2 LTG DSNT NW-N SLP125
12:05
M
24 °C 10 mi 1.700 ft 160° 160° 12 kt METAR KBAD 041805Z AUTO 16012KT 10SM BKN017 BKN047 24/20 A2990 RMK AO2 LTG DSNT NW CIG 016V021 SLP128
11:55
M
25 °C 10 mi 1.600 ft 160° 160° 14 kt METAR KBAD 041755Z AUTO 16014KT 10SM BKN016 BKN022 BKN046 25/20 A2990 RMK AO2 SLP128 T02490203 10249 20190 58013
11:05
M
24 °C 10 mi 1.500 ft 150° 150° 12 kt METAR KBAD 041705Z 15012KT 10SM OVC015 24/20 A2992 RMK AO2A SLP135
10:55
M
23 °C 10 mi 1.400 ft 160° 160° 13 kt METAR KBAD 041655Z 16013KT 10SM OVC014 23/20 A2992 RMK AO2A SLP135 T02330198
09:55
M
23 °C 10 mi 1.100 ft 160° 160° 9 kt METAR KBAD 041555Z 16009KT 10SM OVC011 23/20 A2993 RMK AO2A SLP138 T02280199
09:42
M
23 °C 10 mi 1.000 ft 160° 160° 13 kt METAR KBAD 041542Z 16013KT 10SM OVC010 23/20 A2993 RMK AO2A SLP138
08:55
I
22 °C 10 mi 800 ft 160° 160° 10 kt METAR KBAD 041455Z 16010KT 10SM OVC008 22/20 A2994 RMK AO2A SLP142 T02160197 52008
08:30
I
21 °C 9 mi 800 ft 150° 150° 11 kt METAR KBAD 041430Z 15011KT 9SM BKN008 OVC028 21/19 A2993 RMK AO2A SLP138
08:20
I
21 °C 9 mi 700 ft 150° 150° 11 kt METAR KBAD 041420Z 15011KT 9SM BKN007 OVC027 21/19 A2993 RMK AO2A SLP138
08:15
I
21 °C 8 mi 700 ft 150° 150° 9 kt METAR KBAD 041415Z AUTO 15009KT 8SM BKN007 OVC025 21/19 A2993 RMK AO2 SLP138
07:55
I
20 °C 7 mi 600 ft 150° 150° 9 kt METAR KBAD 041355Z AUTO 15009KT 7SM BKN006 OVC026 20/19 A2993 RMK AO2 SLP138 T02030189
07:31
I
20 °C 6 mi 600 ft 160° 160° 5 kt METAR KBAD 041331Z AUTO 16005KT 6SM BR OVC006 20/19 A2992 RMK AO2 SLP135
07:25
I
19 °C 6 mi 700 ft 160° 160° 4 kt METAR KBAD 041325Z AUTO 16004KT 6SM BR BKN007 BKN014 OVC048 19/18 A2992 RMK AO2 CIG 007V014 SLP135
07:15
M
19 °C 5 mi 1.300 ft 160° 160° 4 kt METAR KBAD 041315Z AUTO 16004KT 5SM BR SCT008 BKN013 BKN035 OVC048 19/18 A2992 RMK AO2 CIG 013V036 BKN013 V SCT SLP135
06:55
V
19 °C 6 mi 3.700 ft 160° 160° 5 kt METAR KBAD 041255Z AUTO 16005KT 6SM BR SCT006 BKN037 BKN049 OVC060 19/18 A2992 RMK AO2 SLP135 T01920180
06:35
M
20 °C 9 mi 1.400 ft 150° 150° 4 kt METAR KBAD 041235Z AUTO 15004KT 9SM SCT007 BKN014 BKN039 OVC060 20/18 A2992 RMK AO2 CIG 014V039 BKN014 V SCT SLP135
05:55
M
20 °C 10 mi 1.200 ft 140° 140° 7 kt METAR KBAD 041155Z AUTO 14007KT 10SM OVC012 20/18 A2991 RMK AO2 SLP131 T01980183 10205 20162 53006
04:55
M
20 °C 8 mi 1.100 ft 130° 130° 5 kt METAR KBAD 041055Z AUTO 13005KT 8SM OVC011 20/18 A2990 RMK AO2 SLP128 T01970183
03:55
M
20 °C 9 mi 1.100 ft 150° 150° 6 kt METAR KBAD 040955Z AUTO 15006KT 9SM OVC011 20/18 A2990 RMK AO2 CIG 010 RWY33 SLP128 T01980184
02:55
M
20 °C 10 mi 1.000 ft 190° 190° 12 kt METAR KBAD 040855Z AUTO 19012KT 10SM OVC010 20/19 A2990 RMK AO2 SLP128 T02040185 50001
02:25
M
19 °C 7 mi 1.200 ft 170° 170° 8 kt METAR KBAD 040825Z AUTO 17008KT 7SM OVC012 19/18 A2989 RMK AO2 SLP125
02:05
M
18 °C 5 mi 1.500 ft 160° 160° 6 kt METAR KBAD 040805Z AUTO 16006KT 5SM BR BKN015 18/17 A2989 RMK AO2 SLP125
01:55
M
17 °C 4 mi - 170° 170° 5 kt METAR KBAD 040755Z AUTO 17005KT 4SM BR SCT014 17/16 A2989 RMK AO2 SLP125 T01740164
01:35
M
17 °C 4 mi 1.400 ft 150° 150° 6 kt METAR KBAD 040735Z AUTO 15006KT 4SM BR BKN014 17/16 A2989 RMK AO2 BKN V FEW SLP125
00:55
V
17 °C 6 mi - 160° 160° 5 kt METAR KBAD 040655Z AUTO 16005KT 6SM BR CLR 17/16 A2990 RMK AO2 SLP128 T01680158

3 de março de 2024

Hora Código Clima Temp. Visibilidade Tecto Vento METAR/SPECI
23:55
V
17 °C 8 mi - 160° 160° 6 kt METAR KBAD 040555Z AUTO 16006KT 8SM CLR 17/16 A2989 RMK AO2 SLP125 T01730160 10215 20169 402430128 58005
18:55
V
20 °C 10 mi - 150° 150° 9 kt METAR KBAD 040055Z AUTO 15009KT 10SM CLR 20/17 A2989 RMK AO2 SLP125 T02040168
17:55
V
22 °C 10 mi - 150° 150° 10 kt METAR KBAD 032355Z AUTO 15010KT 10SM CLR 22/17 A2989 RMK AO2 SLP125 T02150173 10243 20196 56008
16:55
V
23 °C 10 mi - 150° 150° 12 kt METAR KBAD 032255Z AUTO 15012KT 10SM CLR 23/18 A2989 RMK AO2 SLP125 T02260175
15:55
V
24 °C 10 mi - 160° 160° 14 kt METAR KBAD 032155Z AUTO 16014KT 10SM FEW028 FEW035 24/17 A2989 RMK AO2 SLP125 T02430170
14:55
V
24 °C 10 mi 4.100 ft 160° 160° 12 kt METAR KBAD 032055Z AUTO 16012KT 10SM SCT029 BKN041 24/18 A2991 RMK AO2 SLP132 T02410176 57024
14:35
V
24 °C 10 mi 4.400 ft 170° 170° 11 kt METAR KBAD 032035Z AUTO 17011KT 10SM FEW024 SCT030 BKN044 24/17 A2991 RMK AO2 SLP132
13:55
M
23 °C 10 mi 2.300 ft 180° 180° 13 kt METAR KBAD 031955Z AUTO 18013KT 10SM BKN023 OVC042 23/17 A2993 RMK AO2 SLP138 T02280170
13:15
V
22 °C 10 mi 3.700 ft 170° 170° 10 kt METAR KBAD 031915Z AUTO 17010KT 10SM SCT020 BKN037 OVC044 22/17 A2994 RMK AO2 SLP142
13:05
M
22 °C 10 mi 1.900 ft 170° 170° 10 - 17 kt METAR KBAD 031905Z AUTO 17010G17KT 10SM BKN019 OVC041 22/17 A2995 RMK AO2 CIG 019V026 SLP145
12:55
M
22 °C 10 mi 2.600 ft 190° 190° 8 kt METAR KBAD 031855Z AUTO 19008KT 10SM SCT018 BKN026 OVC039 22/17 A2995 RMK AO2 CIG 018V039 SLP145 T02220171
12:35
M
21 °C 10 mi 2.500 ft 180° 180° 6 kt METAR KBAD 031835Z AUTO 18006KT 10SM SCT013 SCT018 BKN025 OVC034 21/17 A2996 RMK AO2 CIG 012V025 BKN V OVC CIG 013 RWY33 SLP149
12:05
M
20 °C 10 mi 1.000 ft 180° 180° 6 kt METAR KBAD 031805Z AUTO 18006KT 10SM OVC010 20/17 A2998 RMK AO2 CIG 008V010 SLP155
11:55
I
20 °C 10 mi 800 ft 160° 160° 7 kt METAR KBAD 031755Z AUTO 16007KT 10SM OVC008 20/17 A2998 RMK AO2 SLP155 T01960170 10197 20148 58007
11:35
I
19 °C 10 mi 700 ft 160° 160° 8 kt METAR KBAD 031735Z AUTO 16008KT 10SM OVC007 19/17 A2999 RMK AO2 SLP159
11:25
I
19 °C 10 mi 600 ft 170° 170° 8 kt METAR KBAD 031725Z AUTO 17008KT 10SM OVC006 19/17 A3000 RMK AO2 SLP162
11:05
I
19 °C 8 mi 500 ft 170° 170° 8 kt METAR KBAD 031705Z AUTO 17008KT 8SM OVC005 19/17 A3000 RMK AO2 SLP162
10:55
L
18 °C 6 mi 400 ft 160° 160° 8 kt METAR KBAD 031655Z AUTO 16008KT 6SM BR OVC004 18/17 A3000 RMK AO2 SLP162 T01820167
10:15
L
18 °C 6 mi 400 ft 180° 180° 9 kt METAR KBAD 031615Z AUTO 18009KT 6SM BR OVC004 18/16 A3001 RMK AO2 SLP166
09:55
I
18 °C 6 mi 500 ft 180° 180° 10 kt METAR KBAD 031555Z AUTO 18010KT 6SM BR OVC005 18/16 A3001 RMK AO2 SLP166 T01760159
09:25
I
17 °C 9 mi 500 ft 170° 170° 10 kt METAR KBAD 031525Z AUTO 17010KT 9SM OVC005 17/16 A3001 RMK AO2 SLP166
09:05
L
17 °C 7 mi 400 ft 170° 170° 10 kt METAR KBAD 031505Z AUTO 17010KT 7SM OVC004 17/16 A3001 RMK AO2 SLP166
08:55
L
17 °C 7 mi 300 ft 160° 160° 8 kt METAR KBAD 031455Z AUTO 16008KT 7SM OVC003 17/16 A3000 RMK AO2 SLP162 T01670156 52010
08:35
L
16 °C 4 mi 200 ft 160° 160° 11 kt METAR KBAD 031435Z AUTO 16011KT 4SM BR OVC002 16/16 A3000 RMK AO2 SLP163
08:25
L
16 °C 2 mi 200 ft 150° 150° 9 kt METAR KBAD 031425Z AUTO 15009KT 2SM BR OVC002 16/15 A2999 RMK AO2 VIS 1 3/8V2 SLP159
08:15
L
16 °C 1⅜ mi 200 ft 150° 150° 10 kt METAR KBAD 031415Z AUTO 15010KT 1 3/8SM BR OVC002 16/15 A2999 RMK AO2 SLP159
08:05
L
16 °C 1¼ mi 200 ft 160° 160° 11 kt METAR KBAD 031405Z AUTO 16011KT 1 1/4SM BR OVC002 16/15 A2999 RMK AO2 VIS 5/8V1 1/4 SLP159
07:55
L
16 °C ⅝ mi 200 ft 160° 160° 11 kt METAR KBAD 031355Z AUTO 16011KT 5/8SM R15/4000V5500FT BR OVC002 16/15 A2999 RMK AO2 SLP159 T01580150
07:05
L
15 °C ½ mi 200 ft 170° 170° 9 kt METAR KBAD 031305Z AUTO 17009KT 1/2SM R15/4000V4500FT FG OVC002 15/15 A2998 RMK AO2 SLP155
06:55
L
15 °C ⅝ mi 200 ft 170° 170° 9 kt METAR KBAD 031255Z AUTO 17009KT 5/8SM R15/4500VP6000FT BR OVC002 15/15 A2998 RMK AO2 SLP155 T01530145
06:44
L
15 °C ⅞ mi 200 ft 180° 180° 9 kt METAR KBAD 031244Z AUTO 18009KT 7/8SM R15/P6000FT BR OVC002 15/14 A2998 RMK AO2 VIS 7/8V1 3/4 VIS 3/8 RWY33 SLP155
06:34
L
15 °C 2 mi 200 ft 170° 170° 11 kt METAR KBAD 031234Z AUTO 17011KT 2SM BR OVC002 15/14 A2998 RMK AO2 VIS 2V5 VIS 7/8 RWY33 CIG 002V004 OVC V BKN SLP156
06:24
L
15 °C 5 mi 400 ft 170° 170° 9 kt METAR KBAD 031224Z AUTO 17009KT 5SM BR OVC004 15/14 A2998 RMK AO2 VIS 2 1/4 RWY33 SLP156
06:14
I
15 °C 6 mi 500 ft 180° 180° 6 kt METAR KBAD 031214Z AUTO 18006KT 6SM BR BKN005 OVC014 15/14 A2998 RMK AO2 CIG 005V014 SLP156
06:04
M
15 °C 6 mi 1.400 ft 170° 170° 6 kt METAR KBAD 031204Z AUTO 17006KT 6SM BR SCT006 OVC014 15/14 A2997 RMK AO2 SLP152
05:55
M
15 °C 6 mi 1.500 ft 190° 190° 4 kt METAR KBAD 031155Z AUTO 19004KT 6SM BR BKN015 15/14 A2997 RMK AO2 SLP152 T01470136 10161 20128 53012
05:25
V
14 °C 6 mi - 170° 170° 4 kt METAR KBAD 031125Z AUTO 17004KT 6SM BR SCT018 14/13 A2996 RMK AO2 SLP149
05:05
M
13 °C 6 mi 1.800 ft 150° 150° 6 kt METAR KBAD 031105Z AUTO 15006KT 6SM BR BKN018 13/12 A2995 RMK AO2 BKN V SCT SLP145
04:55
V
13 °C 6 mi - 140° 140° 5 kt METAR KBAD 031055Z AUTO 14005KT 6SM BR FEW017 13/12 A2995 RMK AO2 SLP145 T01300117
03:55
V
15 °C 7 mi - 150° 150° 7 kt METAR KBAD 030955Z AUTO 15007KT 7SM FEW018 15/13 A2992 RMK AO2 SLP135 T01460131
02:55
M
13 °C 7 mi 1.800 ft 150° 150° 6 kt METAR KBAD 030855Z AUTO 15006KT 7SM BKN018 13/12 A2994 RMK AO2 SLP142 T01330119 58007
01:55
V
14 °C 10 mi 4.300 ft 160° 160° 5 kt METAR KBAD 030755Z AUTO 16005KT 10SM BKN043 14/12 A2996 RMK AO2 SLP149 T01420121
00:55
V
15 °C 10 mi - 180° 180° 4 kt METAR KBAD 030655Z AUTO 18004KT 10SM CLR 15/12 A2996 RMK AO2 SLP149 T01510119

2 de março de 2024

Hora Código Clima Temp. Visibilidade Tecto Vento METAR/SPECI
23:55
V
16 °C 8 mi - 170° 170° 4 kt METAR KBAD 030555Z AUTO 17004KT 8SM CLR 16/12 A2996 RMK AO2 SLP149 T01570119 10205 20145 402390058 58002
22:55
V
15 °C 10 mi - 170° 170° 5 kt METAR KBAD 030455Z AUTO 17005KT 10SM CLR 15/12 A2996 RMK AO2 SLP149 T01540116
21:55
V
17 °C 10 mi - 180° 180° 6 kt METAR KBAD 030355Z AUTO 18006KT 10SM CLR 17/12 A2996 RMK AO2 SLP149 T01720115
20:55
V
17 °C 10 mi - 360° 360° 0 kt METAR KBAD 030255Z AUTO 00000KT 10SM CLR 17/12 A2996 RMK AO2 SLP149 T01670116 53002
19:55
V
18 °C 10 mi - 110° 110° 5 kt METAR KBAD 030155Z AUTO 11005KT 10SM CLR 18/12 A2995 RMK AO2 SLP146 T01770117
18:55
V
20 °C 10 mi - 160° 160° 4 kt METAR KBAD 030055Z AUTO 16004KT 10SM CLR 20/12 A2995 RMK AO2 SLP146 T02030120
17:55
V
21 °C 10 mi - 140° 140° 8 kt METAR KBAD 022355Z AUTO 14008KT 10SM CLR 21/13 A2996 RMK AO2 SLP149 T02060128 10239 20199 56010
16:55
V
23 °C 10 mi - 160° 160° 9 kt METAR KBAD 022255Z AUTO 16009KT 10SM CLR 23/13 A2996 RMK AO2 SLP149 T02340133
15:55
V
24 °C 10 mi - 150° 150° 9 kt METAR KBAD 022155Z AUTO 15009KT 10SM CLR 24/14 A2997 RMK AO2 SLP152 T02380136
14:55
V
24 °C 10 mi - 160° 160° 7 kt METAR KBAD 022055Z AUTO 16007KT 10SM CLR 24/14 A2999 RMK AO2 SLP159 T02350139 57025
13:55
V
23 °C 10 mi - 150° 150° 10 kt METAR KBAD 021955Z AUTO 15010KT 10SM CLR 23/14 A3001 RMK AO2 SLP166 T02280144
12:55
V
21 °C 7 mi - 170° 170° 9 kt METAR KBAD 021855Z AUTO 17009KT 7SM CLR 21/14 A3003 RMK AO2 SLP173 T02140141
11:55
V
20 °C 9 mi - 170° 170° 9 kt METAR KBAD 021755Z AUTO 17009KT 9SM CLR 20/14 A3006 RMK AO2 SLP183 T01990138 10199 20066 58014
10:55
V
18 °C 10 mi - 190° 190° 10 kt METAR KBAD 021655Z AUTO 19010KT 10SM CLR 18/13 A3009 RMK AO2 SLP193 T01820133
09:55
V
16 °C 10 mi - 170° 170° 11 kt METAR KBAD 021555Z AUTO 17011KT 10SM CLR 16/12 A3011 RMK AO2 SLP200 T01600124
08:55
V
13 °C 9 mi - 150° 150° 7 kt METAR KBAD 021455Z AUTO 15007KT 9SM CLR 13/11 A3010 RMK AO2 SLP197 T01280107 52011
08:12
V
11 °C 6 mi - 160° 160° 7 kt METAR KBAD 021412Z AUTO 16007KT 6SM BR FEW003 11/09 A3010 RMK AO2 SLP197
07:55
V
10 °C 6 mi - 160° 160° 5 kt METAR KBAD 021355Z AUTO 16005KT 6SM BR CLR 10/09 A3010 RMK AO2 SLP197 T01000089
07:15
V
8 °C 6 mi - 170° 170° 4 kt METAR KBAD 021315Z AUTO 17004KT 6SM BR CLR 08/07 A3008 RMK AO2 VIS 3/8 RWY33 SLP190
07:05
I
7 °C 1⅛ mi - 160° 160° 5 kt METAR KBAD 021305Z AUTO 16005KT 1 1/8SM R15/6000FT BR CLR 07/07 A3008 RMK AO2 VIS 5/8V1 1/8 VIS 1/8 RWY33 SLP190
06:55
L
7 °C ¾ mi - 140° 140° 5 kt METAR KBAD 021255Z AUTO 14005KT 3/4SM R15/4000V6000FT BR CLR 07/06 A3008 RMK AO2 VIS 1/8 RWY33 SLP190 T00660057
06:05
V
7 °C 6 mi - 150° 150° 5 kt METAR KBAD 021205Z AUTO 15005KT 6SM BR CLR 07/06 A3007 RMK AO2 VIS 3/8 RWY33 SLP187
05:55
I
7 °C 2 mi - 150° 150° 5 kt METAR KBAD 021155Z AUTO 15005KT 2SM BR CLR 07/06 A3007 RMK AO2 VIS 5/8V2 VIS 3/8 RWY33 SLP187 T00710064 10075 20058 53003
05:35
I
8 °C 1 mi - 140° 140° 5 kt METAR KBAD 021135Z AUTO 14005KT 1SM R15/3500VP6000FT BR CLR 08/07 A3006 RMK AO2 VIS 1V3 VIS 3/8 RWY33 SLP183
04:55
V
6 °C 5 mi - 130° 130° 3 kt METAR KBAD 021055Z AUTO 13003KT 5SM BR CLR 06/05 A3006 RMK AO2 SLP183 T00630054
04:35
L
6 °C ⅜ mi - 120° 120° 3 kt METAR KBAD 021035Z AUTO 12003KT 3/8SM R15/1600V3500FT FG CLR 06/06 A3006 RMK AO2 SLP183
04:25
L
6 °C ¼ mi - 140° 140° 3 kt METAR KBAD 021025Z AUTO 14003KT 1/4SM R15/1200V1800FT FG CLR 06/05 A3005 RMK AO2 VIS 1/4V2 1/2 SLP180
03:55
V
6 °C 7 mi - 160° 160° 3 kt METAR KBAD 020955Z AUTO 16003KT 7SM CLR 06/05 A3006 RMK AO2 VIS 1 1/2 RWY33 SLP183 T00640052
03:35
L
7 °C ½ mi - 360° 360° 0 kt METAR KBAD 020935Z AUTO 00000KT 1/2SM R15/1600VP6000FT FG CLR 07/06 A3006 RMK AO2 VIS 3/8V1 1/8 SLP183
03:25
I
7 °C 1⅞ mi - 360° 360° 0 kt METAR KBAD 020925Z AUTO 00000KT 1 7/8SM BR CLR 07/06 A3006 RMK AO2 VIS 1 7/8V9 SLP183
02:55
V
6 °C 10 mi - 360° 360° 0 kt METAR KBAD 020855Z AUTO 00000KT 10SM CLR 06/05 A3006 RMK AO2 SLP184 T00610049 58003
02:35
V
7 °C 9 mi - 360° 360° 0 kt METAR KBAD 020835Z AUTO 00000KT 9SM CLR 07/06 A3006 RMK AO2 SLP184
02:25
L
7 °C ¾ mi - 360° 360° 0 kt METAR KBAD 020825Z AUTO 00000KT 3/4SM R15/1400VP6000FT BR CLR 07/06 A3007 RMK AO2 VIS 3/8V4 SLP187
01:55
V
6 °C 10 mi - 360° 360° 0 kt METAR KBAD 020755Z AUTO 00000KT 10SM CLR 06/05 A3007 RMK AO2 SLP187 T00640053
00:55
V
7 °C 7 mi - 360° 360° 0 kt METAR KBAD 020655Z AUTO 00000KT 7SM CLR 07/06 A3008 RMK AO2 SLP190 T00730062

1 de março de 2024

Hora Código Clima Temp. Visibilidade Tecto Vento METAR/SPECI
23:55
V
8 °C 10 mi - 360° 360° 0 kt METAR KBAD 020555Z AUTO 00000KT 10SM CLR 08/06 A3007 RMK AO2 SLP187 T00760062 10134 20074 401600051 58002